Alanreed, Texas
Current Conditions -  °F | °C
As of 4:15 AM on Sunday 26 Oct 2014 (Local Time) from KPPA Reporting Station
Clear Clear  
Wind Chill: 60°   Ceiling: Unl
Heat Index: 60°   Visibility: 10mi
Dew Point: 48°   Wind: 10mph
Humidity: 64%   Direction: 210°SSW
Pressure: 29.96"   Gusts: 16mph
Location:  35.21°N, 100.74°W
Report Text: KPPA 260915Z AUTO 21009G14KT 10SM CLR 16/09 A2996 RMK AO2 T01550088 PNO
Loading
Personal Weather Stations






























Interactive Weather Map
Tropical Storm Tracking
New forecast layout! Learn more

10-Day Weather Forecast

Advertisements
Track Severe Weather on mobile